^^
Meteo Knjazevac Station Historical Data
Daily Summary for March 14, 2021 Units:  English    Metric   Both
Daily Weekly Monthly Yearly Custom
  High: Low: Average:
Temperature: 38.5 °F 33.1 °F 35.3 °F
Dew Point: 36.1 °F 32.6 °F 34 °F
Humidity: 99% 89% 95%
Wind Speed: 8mph 0mph 2.5mph
Wind Gust: 12mph - -
Wind- - SW
Pressure: 30.25 in 30.17 in -
Precipitation: 0.00 in    
Historical Graphs
 
 
Tabular Data for March 14, 2021
Time Temperature Dew Point Pressure Wind Wind Speed Wind Gust Humidity Rainfall Rate (Hourly) solar Conditions
00:00 33.1 °F 32.9 °F 30.18 in WSW 1 mph 3 mph 99% 0.00 in 0 W/m2
00:10 33.1 °F 32.8 °F 30.18 in Calm   4 mph 99% 0.00 in 0 W/m2
00:20 33.3 °F 33 °F 30.18 in SSW 2 mph 3 mph 99% 0.00 in 0 W/m2
00:30 33.3 °F 33 °F 30.18 in Calm   2 mph 99% 0.00 in 0 W/m2
00:40 33.3 °F 33 °F 30.18 in North 1 mph 3 mph 99% 0.00 in 0 W/m2
00:50 33.3 °F 33 °F 30.17 in NW 1 mph 2 mph 99% 0.00 in 0 W/m2
01:00 33.3 °F 33 °F 30.17 in South 1 mph 5 mph 99% 0.00 in 0 W/m2
01:10 33.4 °F 33.2 °F 30.17 in ESE 3 mph 7 mph 99% 0.00 in 0 W/m2
01:20 33.4 °F 33.2 °F 30.18 in SSE 1 mph 5 mph 99% 0.00 in 0 W/m2
01:30 33.4 °F 33.2 °F 30.18 in SSW 1 mph 3 mph 99% 0.00 in 0 W/m2
01:40 33.4 °F 33.2 °F 30.18 in SSE 2 mph 5 mph 99% 0.00 in 0 W/m2
01:50 33.6 °F 33.4 °F 30.19 in NE 1 mph 4 mph 99% 0.00 in 0 W/m2
02:00 33.6 °F 33.4 °F 30.18 in Calm   3 mph 99% 0.00 in 0 W/m2
02:10 33.6 °F 33.4 °F 30.18 in Calm   3 mph 99% 0.00 in 0 W/m2
02:20 33.6 °F 33.4 °F 30.18 in South 1 mph 4 mph 99% 0.00 in 0 W/m2
02:30 33.6 °F 33.1 °F 30.18 in Calm   2 mph 98% 0.00 in 0 W/m2
02:40 33.6 °F 33.1 °F 30.18 in Calm   2 mph 98% 0.00 in 0 W/m2
02:50 33.6 °F 33.1 °F 30.18 in ENE 1 mph 2 mph 98% 0.00 in 0 W/m2
03:00 33.8 °F 33.3 °F 30.18 in Calm   2 mph 98% 0.00 in 0 W/m2
03:10 33.8 °F 33.3 °F 30.19 in West 2 mph 3 mph 98% 0.00 in 0 W/m2
03:20 33.8 °F 33.3 °F 30.18 in WSW 2 mph 5 mph 98% 0.00 in 0 W/m2
03:30 33.8 °F 33.3 °F 30.19 in WSW 3 mph 5 mph 98% 0.00 in 0 W/m2
03:40 34 °F 33.5 °F 30.19 in SSW 2 mph 5 mph 98% 0.00 in 0 W/m2
03:50 34 °F 33.5 °F 30.19 in SW 1 mph 3 mph 98% 0.00 in 0 W/m2
04:00 34 °F 33.5 °F 30.19 in South 1 mph 4 mph 98% 0.00 in 0 W/m2
04:10 34 °F 33.5 °F 30.19 in SE 2 mph 4 mph 98% 0.00 in 0 W/m2
04:20 33.8 °F 33.5 °F 30.19 in SSW 1 mph 3 mph 99% 0.00 in 0 W/m2
04:30 33.8 °F 33.5 °F 30.19 in Calm   2 mph 99% 0.00 in 0 W/m2
04:40 33.6 °F 33.4 °F 30.19 in West 2 mph 3 mph 99% 0.00 in 0 W/m2
04:50 33.6 °F 33.4 °F 30.19 in WSW 1 mph 3 mph 99% 0.00 in 0 W/m2
05:00 33.6 °F 33.4 °F 30.19 in Calm   3 mph 99% 0.00 in 0 W/m2
05:10 33.6 °F 33.4 °F 30.19 in Calm   2 mph 99% 0.00 in 0 W/m2
05:20 33.6 °F 33.4 °F 30.19 in Calm   2 mph 99% 0.00 in 0 W/m2
05:30 33.6 °F 33.4 °F 30.19 in WSW 1 mph 2 mph 99% 0.00 in 0 W/m2
05:40 33.6 °F 33.4 °F 30.19 in SSE 1 mph 5 mph 99% 0.00 in 0 W/m2
05:50 33.6 °F 33.3 °F 30.19 in SE 1 mph 5 mph 99% 0.00 in 0 W/m2
06:00 33.6 °F 33.4 °F 30.19 in NE 2 mph 3 mph 99% 0.00 in 0 W/m2
06:10 33.6 °F 33.4 °F 30.19 in East 1 mph 4 mph 99% 0.00 in 0 W/m2
06:20 33.6 °F 33.4 °F 30.19 in NW 1 mph 4 mph 99% 0.00 in 0 W/m2
06:30 33.6 °F 33.4 °F 30.19 in East 1 mph 5 mph 99% 0.00 in 0 W/m2
06:40 33.7 °F 33.5 °F 30.20 in Calm   2 mph 99% 0.00 in 0 W/m2
06:50 33.8 °F 33.5 °F 30.20 in Calm   3 mph 99% 0.00 in 0 W/m2
07:00 33.8 °F 33.5 °F 30.20 in Calm   2 mph 99% 0.00 in 1 W/m2
07:10 33.8 °F 33.5 °F 30.20 in Calm   2 mph 99% 0.00 in 2 W/m2
07:20 33.8 °F 33.5 °F 30.20 in North 1 mph 2 mph 99% 0.00 in 4 W/m2
07:30 33.8 °F 33.5 °F 30.20 in Calm   1 mph 99% 0.00 in 7 W/m2
07:40 34 °F 33.7 °F 30.21 in ESE 1 mph 2 mph 99% 0.00 in 9 W/m2
07:50 34 °F 33.7 °F 30.21 in ESE 2 mph 3 mph 99% 0.00 in 14 W/m2
08:00 34 °F 33.7 °F 30.21 in SE 1 mph 2 mph 99% 0.00 in 20 W/m2
08:10 34.2 °F 33.9 °F 30.21 in SE 1 mph 2 mph 99% 0.00 in 28 W/m2
08:20 34.2 °F 33.9 °F 30.21 in Calm   2 mph 99% 0.00 in 38 W/m2
08:30 34.3 °F 34.1 °F 30.21 in Calm   2 mph 99% 0.00 in 48 W/m2
08:40 34.5 °F 34.3 °F 30.21 in Calm     99% 0.00 in 64 W/m2
08:50 34.7 °F 34.4 °F 30.21 in NE 1 mph 2 mph 99% 0.00 in 94 W/m2
09:00 35.1 °F 34.6 °F 30.22 in NE 1 mph 3 mph 98% 0.00 in 98 W/m2
09:10 35.4 °F 34.9 °F 30.22 in SSW 1 mph 3 mph 98% 0.00 in 134 W/m2
09:20 35.8 °F 35.3 °F 30.22 in WSW 1 mph 4 mph 98% 0.00 in 125 W/m2
09:30 36.1 °F 35.1 °F 30.22 in South 2 mph 5 mph 96% 0.00 in 116 W/m2
09:40 36.3 °F 35.3 °F 30.22 in South 1 mph 6 mph 96% 0.00 in 109 W/m2
09:50 36.5 °F 35.2 °F 30.22 in SW 2 mph 6 mph 95% 0.00 in 65 W/m2
10:00 36.7 °F 35.1 °F 30.22 in WSW 2 mph 6 mph 94% 0.00 in 52 W/m2
10:10 36.7 °F 35.1 °F 30.22 in WSW 2 mph 6 mph 94% 0.00 in 53 W/m2
10:20 36.7 °F 35.1 °F 30.22 in WSW 3 mph 7 mph 94% 0.00 in 62 W/m2
10:30 36.9 °F 35.3 °F 30.22 in WSW 3 mph 7 mph 94% 0.00 in 60 W/m2
10:40 36.9 °F 35.3 °F 30.21 in WSW 3 mph 7 mph 94% 0.00 in 70 W/m2
10:50 36.9 °F 35.3 °F 30.21 in WSW 5 mph 6 mph 94% 0.00 in 69 W/m2
11:00 36.9 °F 35.4 °F 30.21 in SW 3 mph 7 mph 94% 0.00 in 77 W/m2
11:10 37 °F 35.2 °F 30.20 in WSW 5 mph 6 mph 93% 0.00 in 99 W/m2
11:20 37.2 °F 35.7 °F 30.20 in SW 3 mph 6 mph 94% 0.00 in 106 W/m2
11:30 37.4 °F 35.6 °F 30.20 in SW 2 mph 5 mph 93% 0.00 in 156 W/m2
11:40 37.8 °F 35.9 °F 30.20 in SW 5 mph 7 mph 93% 0.00 in 181 W/m2
11:50 38.1 °F 35.7 °F 30.20 in Calm   5 mph 91% 0.00 in 145 W/m2
12:00 38.3 °F 35.9 °F 30.20 in SW 3 mph 5 mph 91% 0.00 in 111 W/m2
12:10 38.5 °F 36.1 °F 30.19 in WSW 2 mph 5 mph 91% 0.00 in 76 W/m2
12:20 38.3 °F 35.6 °F 30.19 in SW 3 mph 6 mph 90% 0.00 in 76 W/m2
12:30 38.3 °F 35.6 °F 30.20 in WSW 2 mph 5 mph 90% 0.00 in 85 W/m2
12:40 38.5 °F 35.8 °F 30.19 in WSW 2 mph 6 mph 90% 0.00 in 120 W/m2
12:50 38.5 °F 35.8 °F 30.19 in WSW 3 mph 7 mph 90% 0.00 in 84 W/m2
13:00 38.5 °F 35.8 °F 30.19 in SW 3 mph 7 mph 90% 0.00 in 71 W/m2
13:10 38.5 °F 35.8 °F 30.19 in WSW 5 mph 8 mph 90% 0.00 in 93 W/m2
13:20 38.5 °F 35.5 °F 30.19 in WSW 5 mph 10 mph 89% 0.00 in 102 W/m2
13:30 38.3 °F 35.3 °F 30.19 in WSW 5 mph 11 mph 89% 0.00 in 104 W/m2
13:40 38.3 °F 35.3 °F 30.19 in West 6 mph 10 mph 89% 0.00 in 99 W/m2
13:50 38.2 °F 35.3 °F 30.19 in WSW 8 mph 12 mph 89% 0.00 in 71 W/m2
14:00 37.9 °F 35 °F 30.19 in WSW 8 mph 12 mph 89% 0.00 in 47 W/m2
14:10 37.8 °F 34.8 °F 30.19 in WSW 6 mph 12 mph 89% 0.00 in 54 W/m2
14:20 37.6 °F 34.6 °F 30.19 in WSW 6 mph 9 mph 89% 0.00 in 50 W/m2
14:30 37.6 °F 34.6 °F 30.19 in WSW 5 mph 9 mph 89% 0.00 in 41 W/m2
14:40 37.6 °F 34.6 °F 30.19 in WSW 5 mph 8 mph 89% 0.00 in 31 W/m2
14:50 37.4 °F 34.5 °F 30.20 in WSW 5 mph 9 mph 89% 0.00 in 29 W/m2
15:00 37.4 °F 34.5 °F 30.20 in WSW 5 mph 10 mph 89% 0.00 in 24 W/m2
15:10 37.3 °F 34.4 °F 30.20 in West 6 mph 10 mph 89% 0.00 in 19 W/m2
15:20 37.2 °F 34.3 °F 30.20 in West 6 mph 10 mph 89% 0.00 in 13 W/m2
15:30 37.2 °F 34.6 °F 30.20 in West 6 mph 10 mph 90% 0.00 in 9 W/m2
15:40 37.2 °F 34.6 °F 30.20 in WSW 3 mph 7 mph 90% 0.00 in 6 W/m2
15:50 37 °F 34.4 °F 30.20 in WSW 5 mph 8 mph 90% 0.00 in 3 W/m2
16:00 36.9 °F 34.2 °F 30.20 in WSW 3 mph 8 mph 90% 0.00 in 0 W/m2
16:10 36.9 °F 34.2 °F 30.20 in WSW 6 mph 8 mph 90% 0.00 in 0 W/m2
16:20 36.7 °F 34 °F 30.21 in WSW 5 mph 8 mph 90% 0.00 in 0 W/m2
16:30 36.5 °F 34.1 °F 30.21 in West 3 mph 10 mph 91% 0.00 in 0 W/m2
16:40 36.5 °F 34.1 °F 30.21 in WSW 3 mph 7 mph 91% 0.00 in 0 W/m2
16:50 36.5 °F 34.1 °F 30.21 in WSW 3 mph 7 mph 91% 0.00 in 0 W/m2
17:00 36.4 °F 34.6 °F 30.22 in WSW 3 mph 7 mph 93% 0.00 in 0 W/m2
17:10 36.3 °F 34.5 °F 30.22 in WSW 3 mph 6 mph 93% 0.00 in 0 W/m2
17:20 36.3 °F 34.5 °F 30.22 in West 2 mph 4 mph 93% 0.00 in 0 W/m2
17:30 36.3 °F 34.5 °F 30.22 in WSW 3 mph 8 mph 93% 0.00 in 0 W/m2
17:40 36.1 °F 33.8 °F 30.22 in WSW 6 mph 10 mph 91% 0.00 in 0 W/m2
17:50 36 °F 33.6 °F 30.22 in WSW 6 mph 11 mph 91% 0.00 in 0 W/m2
18:00 35.8 °F 33.4 °F 30.22 in WSW 7 mph 10 mph 91% 0.00 in 0 W/m2
18:10 35.8 °F 33.4 °F 30.23 in WSW 6 mph 10 mph 91% 0.00 in 0 W/m2
18:20 35.6 °F 33.8 °F 30.23 in WSW 5 mph 11 mph 93% 0.00 in 0 W/m2
18:30 35.6 °F 33.8 °F 30.23 in WSW 3 mph 9 mph 93% 0.00 in 0 W/m2
18:40 35.6 °F 33.8 °F 30.23 in West 3 mph 7 mph 93% 0.00 in 0 W/m2
18:50 35.6 °F 33.8 °F 30.23 in WSW 6 mph 10 mph 93% 0.00 in 0 W/m2
19:00 35.5 °F 33.7 °F 30.23 in WSW 3 mph 10 mph 93% 0.00 in 0 W/m2
19:10 35.4 °F 33.6 °F 30.23 in WSW 3 mph 10 mph 93% 0.00 in 0 W/m2
19:20 35.4 °F 33.6 °F 30.23 in WSW 3 mph 7 mph 93% 0.00 in 0 W/m2
19:30 35.4 °F 33.6 °F 30.23 in West 3 mph 8 mph 93% 0.00 in 0 W/m2
19:40 35.4 °F 33.9 °F 30.24 in WSW 2 mph 5 mph 94% 0.00 in 0 W/m2
19:50 35.4 °F 33.9 °F 30.23 in SW 1 mph 3 mph 94% 0.00 in 0 W/m2
20:00 35.4 °F 33.9 °F 30.23 in SW 2 mph 3 mph 94% 0.00 in 0 W/m2
20:10 35.4 °F 33.9 °F 30.24 in SW 2 mph 5 mph 94% 0.00 in 0 W/m2
20:20 35.4 °F 33.9 °F 30.24 in WSW 5 mph 6 mph 94% 0.00 in 0 W/m2
20:30 35.3 °F 33.8 °F 30.24 in SW 3 mph 7 mph 94% 0.00 in 0 W/m2
20:40 35.2 °F 33.7 °F 30.24 in SW 3 mph 7 mph 94% 0.00 in 0 W/m2
20:50 35.2 °F 33.6 °F 30.24 in SW 2 mph 7 mph 94% 0.00 in 0 W/m2
21:00 35.1 °F 33.5 °F 30.24 in SW 6 mph 9 mph 94% 0.00 in 0 W/m2
21:10 34.9 °F 33.3 °F 30.23 in SW 3 mph 9 mph 94% 0.00 in 0 W/m2
21:20 34.9 °F 33.3 °F 30.23 in SW 3 mph 7 mph 94% 0.00 in 0 W/m2
21:30 34.9 °F 33.3 °F 30.24 in SW 3 mph 6 mph 94% 0.00 in 0 W/m2
21:40 34.7 °F 33.2 °F 30.24 in WSW 3 mph 6 mph 94% 0.00 in 0 W/m2
21:50 34.7 °F 33.2 °F 30.24 in SW 3 mph 7 mph 94% 0.00 in 0 W/m2
22:00 34.7 °F 33.2 °F 30.24 in SW 1 mph 5 mph 94% 0.00 in 0 W/m2
22:10 34.5 °F 33 °F 30.25 in WSW 1 mph 3 mph 94% 0.00 in 0 W/m2
22:20 34.6 °F 33 °F 30.25 in WSW 5 mph 7 mph 94% 0.00 in 0 W/m2
22:30 34.6 °F 33 °F 30.25 in WSW 3 mph 6 mph 94% 0.00 in 0 W/m2
22:40 34.5 °F 33 °F 30.24 in SW 2 mph 5 mph 94% 0.00 in 0 W/m2
22:50 34.5 °F 33 °F 30.25 in SW 2 mph 5 mph 94% 0.00 in 0 W/m2
23:00 34.5 °F 33 °F 30.25 in SSW 1 mph 4 mph 94% 0.00 in 0 W/m2
23:10 34.3 °F 32.8 °F 30.25 in SSW 2 mph 5 mph 94% 0.00 in 0 W/m2
23:20 34.3 °F 32.8 °F 30.25 in WSW 2 mph 4 mph 94% 0.00 in 0 W/m2
23:30 34.3 °F 32.8 °F 30.25 in SW 2 mph 4 mph 94% 0.00 in 0 W/m2
23:40 34.3 °F 32.8 °F 30.25 in WSW 2 mph 4 mph 94% 0.00 in 0 W/m2
23:50 34.2 °F 32.6 °F 30.24 in SW 3 mph 5 mph 94% 0.00 in 0 W/m2
Knjazevac, Serbia
Compliments of Weather Underground - 2 mb